Latest Weather Observations for Banana Bank

IDQ60901

Issued at 2:11 pm EST Saturday 22 February 2020 (issued every 10 minutes, with the page automatically refreshed every 10 minutes)

About weather observations | Map of Brisbane area stations | Latest observations for Brisbane area | Other Formats
Station Details ID: 040925 Name: BANANA BANK NORTH BEACON Lat: -27.53 Lon: 153.33 Height: 7.0 m
Data from the previous 72 hours. | See also: Recent months at Banana Bank
Date/Time
EST
Temp
°C
App
Temp
°C
Dew
Point
°C
Rel
Hum
%
Delta-T
°C
Wind Press
QNH
hPa
Press
MSL
hPa
Rain since
9am
mm
Dir  Spd
km/h
Gust
km/h
Spd
kts
Gust
kts
22/02:00pm - - - - - SE 35 44 19 24 - - -
22/01:30pm - - - - - SE 35 43 19 23 - - -
22/01:00pm - - - - - SE 35 43 19 23 - - -
22/12:30pm - - - - - SE 35 44 19 24 - - -
22/12:14pm - - - - - SE 28 43 15 23 - - -
22/12:00pm - - - - - S 15 20 8 11 - - -
22/11:30am - - - - - S 39 50 21 27 - - -
22/11:18am - - - - - S 37 46 20 25 - - -
22/11:00am - - - - - ESE 26 32 14 17 - - -
22/10:30am - - - - - ESE 26 35 14 19 - - -
22/10:00am - - - - - SE 28 33 15 18 - - -
22/09:30am - - - - - SE 26 32 14 17 - - -
22/09:00am - - - - - SSE 20 26 11 14 - - -
22/08:30am - - - - - SSE 20 26 11 14 - - -
22/08:00am - - - - - SE 20 24 11 13 - - -
22/07:30am - - - - - ESE 17 20 9 11 - - -
22/07:00am - - - - - ESE 19 20 10 11 - - -
22/06:30am - - - - - ESE 20 26 11 14 - - -
22/06:00am - - - - - SE 19 28 10 15 - - -
22/05:30am - - - - - ESE 19 22 10 12 - - -
22/05:00am - - - - - ESE 17 19 9 10 - - -
22/04:30am - - - - - ESE 17 20 9 11 - - -
22/04:00am - - - - - ESE 15 19 8 10 - - -
22/03:30am - - - - - ESE 17 20 9 11 - - -
22/03:00am - - - - - ESE 19 22 10 12 - - -
22/02:30am - - - - - ESE 17 20 9 11 - - -
22/02:00am - - - - - ESE 17 20 9 11 - - -
22/01:30am - - - - - ESE 19 24 10 13 - - -
22/01:00am - - - - - ESE 19 22 10 12 - - -
22/12:30am - - - - - E 17 20 9 11 - - -
22/12:00am - - - - - ESE 19 22 10 12 - - -
 
Date/Time
EST
Temp
°C
App
Temp
°C
Dew
Point
°C
Rel
Hum
%
Delta-T
°C
Wind Press
QNH
hPa
Press
MSL
hPa
Rain since
9am
mm
Dir  Spd
km/h
Gust
km/h
Spd
kts
Gust
kts
21/11:30pm - - - - - ESE 20 24 11 13 - - -
21/11:00pm - - - - - ESE 20 22 11 12 - - -
21/10:30pm - - - - - ESE 20 22 11 12 - - -
21/10:00pm - - - - - ESE 19 22 10 12 - - -
21/09:30pm - - - - - ESE 20 22 11 12 - - -
21/09:00pm - - - - - ESE 19 22 10 12 - - -
21/08:30pm - - - - - ESE 19 24 10 13 - - -
21/08:00pm - - - - - E 20 24 11 13 - - -
21/07:30pm - - - - - E 22 24 12 13 - - -
21/07:00pm - - - - - E 24 32 13 17 - - -
21/06:30pm - - - - - E 22 28 12 15 - - -
21/06:00pm - - - - - E 26 33 14 18 - - -
21/05:30pm - - - - - ESE 26 33 14 18 - - -
21/05:00pm - - - - - E 26 37 14 20 - - -
21/04:30pm - - - - - E 26 33 14 18 - - -
21/04:00pm - - - - - E 24 33 13 18 - - -
21/03:30pm - - - - - E 22 28 12 15 - - -
21/03:00pm - - - - - E 22 28 12 15 - - -
21/02:30pm - - - - - ESE 22 28 12 15 - - -
21/02:00pm - - - - - ESE 20 26 11 14 - - -
21/01:30pm - - - - - ESE 20 24 11 13 - - -
21/01:00pm - - - - - ESE 22 30 12 16 - - -
21/12:30pm - - - - - ESE 22 28 12 15 - - -
21/12:00pm - - - - - SE 24 30 13 16 - - -
21/11:30am - - - - - ESE 20 26 11 14 - - -
21/11:00am - - - - - ESE 22 30 12 16 - - -
21/10:30am - - - - - ESE 19 22 10 12 - - -
21/10:00am - - - - - ESE 22 26 12 14 - - -
21/09:30am - - - - - SE 20 26 11 14 - - -
21/09:00am - - - - - SE 22 28 12 15 - - -
21/08:30am - - - - - SE 24 30 13 16 - - -
21/08:00am - - - - - SSE 24 28 13 15 - - -
21/07:30am - - - - - SSE 20 24 11 13 - - -
21/07:00am - - - - - SSE 19 24 10 13 - - -
21/06:30am - - - - - SSE 19 22 10 12 - - -
21/06:00am - - - - - S 11 15 6 8 - - -
21/05:30am - - - - - S 11 13 6 7 - - -
21/05:00am - - - - - S 13 15 7 8 - - -
21/04:30am - - - - - S 13 17 7 9 - - -
21/04:00am - - - - - SE 9 11 5 6 - - -
21/03:30am - - - - - E 11 15 6 8 - - -
21/03:00am - - - - - ESE 15 19 8 10 - - -
21/02:30am - - - - - ESE 15 17 8 9 - - -
21/02:00am - - - - - ESE 13 15 7 8 - - -
21/01:30am - - - - - ESE 15 20 8 11 - - -
21/01:00am - - - - - ESE 17 20 9 11 - - -
21/12:30am - - - - - ESE 17 20 9 11 - - -
21/12:00am - - - - - ESE 17 20 9 11 - - -
 
Date/Time
EST
Temp
°C
App
Temp
°C
Dew
Point
°C
Rel
Hum
%
Delta-T
°C
Wind Press
QNH
hPa
Press
MSL
hPa
Rain since
9am
mm
Dir  Spd
km/h
Gust
km/h
Spd
kts
Gust
kts
20/11:30pm - - - - - ESE 19 24 10 13 - - -
20/11:00pm - - - - - ESE 17 20 9 11 - - -
20/10:30pm - - - - - ESE 19 22 10 12 - - -
20/10:00pm - - - - - ESE 20 24 11 13 - - -
20/09:30pm - - - - - SE 22 24 12 13 - - -
20/09:00pm - - - - - ESE 19 22 10 12 - - -
20/08:30pm - - - - - ESE 20 24 11 13 - - -
20/08:00pm - - - - - ESE 20 24 11 13 - - -
20/07:30pm - - - - - ESE 20 26 11 14 - - -
20/07:00pm - - - - - ESE 20 26 11 14 - - -
20/06:30pm - - - - - ESE 22 26 12 14 - - -
20/06:00pm - - - - - ESE 24 30 13 16 - - -
20/05:30pm - - - - - ESE 22 26 12 14 - - -
20/05:00pm - - - - - SE 24 30 13 16 - - -
20/04:30pm - - - - - SE 24 30 13 16 - - -
20/04:00pm - - - - - SE 22 30 12 16 - - -
20/03:30pm - - - - - SE 22 28 12 15 - - -
20/03:00pm - - - - - ESE 22 28 12 15 - - -
20/02:30pm - - - - - SE 20 24 11 13 - - -
20/02:00pm - - - - - SE 19 22 10 12 - - -
20/01:30pm - - - - - SE 15 19 8 10 - - -
20/01:00pm - - - - - SE 20 24 11 13 - - -
20/12:30pm - - - - - SE 19 22 10 12 - - -
20/12:00pm - - - - - SE 22 26 12 14 - - -
20/11:30am - - - - - SE 22 26 12 14 - - -
20/11:00am - - - - - SE 24 30 13 16 - - -
20/10:30am - - - - - SE 26 32 14 17 - - -
20/10:00am - - - - - SSE 26 30 14 16 - - -
20/09:30am - - - - - SSE 26 32 14 17 - - -
20/09:00am - - - - - SSE 24 30 13 16 - - -
20/08:30am - - - - - SSE 26 33 14 18 - - -
20/08:00am - - - - - SSE 28 33 15 18 - - -
20/07:30am - - - - - SSE 24 30 13 16 - - -
20/07:00am - - - - - SE 22 32 12 17 - - -
20/06:30am - - - - - S 6 9 3 5 - - -
20/06:00am - - - - - SW 11 17 6 9 - - -
20/05:30am - - - - - WSW 7 15 4 8 - - -
20/05:00am - - - - - WSW 9 17 5 9 - - -
20/04:30am - - - - - WSW 11 19 6 10 - - -
20/04:00am - - - - - SW 11 15 6 8 - - -
20/03:30am - - - - - SSW 11 17 6 9 - - -
20/03:00am - - - - - CALM 0 0 0 0 - - -
20/02:30am - - - - - SW 9 15 5 8 - - -
20/02:00am - - - - - SW 9 15 5 8 - - -
20/01:30am - - - - - W 15 20 8 11 - - -
20/01:00am - - - - - NW 17 24 9 13 - - -
20/12:30am - - - - - NNW 19 22 10 12 - - -
20/12:00am - - - - - NNW 26 32 14 17 - - -
 
Date/Time
EST
Temp
°C
App
Temp
°C
Dew
Point
°C
Rel
Hum
%
Delta-T
°C
Wind Press
QNH
hPa
Press
MSL
hPa
Rain since
9am
mm
Dir  Spd
km/h
Gust
km/h
Spd
kts
Gust
kts
19/11:30pm - - - - - NNW 33 41 18 22 - - -
19/11:00pm - - - - - NNW 30 37 16 20 - - -
19/10:30pm - - - - - NNW 30 35 16 19 - - -
19/10:00pm - - - - - NNW 26 35 14 19 - - -
19/09:30pm - - - - - N 22 28 12 15 - - -
19/09:01pm - - - - - WNW 37 56 20 30 - - -
19/09:00pm - - - - - WNW 37 56 20 30 - - -
19/08:55pm - - - - - WNW 33 56 18 30 - - -
19/08:30pm - - - - - NNW 26 32 14 17 - - -
19/08:00pm - - - - - NNW 32 37 17 20 - - -
19/07:30pm - - - - - N 33 39 18 21 - - -
19/07:00pm - - - - - NNW 28 33 15 18 - - -
19/06:30pm - - - - - N 24 30 13 16 - - -
19/06:00pm - - - - - N 24 32 13 17 - - -
19/05:30pm - - - - - N 26 30 14 16 - - -
19/05:00pm - - - - - N 26 32 14 17 - - -
19/04:30pm - - - - - N 28 33 15 18 - - -
19/04:00pm - - - - - N 30 33 16 18 - - -
19/03:30pm - - - - - N 28 32 15 17 - - -
19/03:00pm - - - - - N 30 33 16 18 - - -
19/02:30pm - - - - - N 28 32 15 17 - - -

Latest Capital City Observations: Canberra | Sydney | Melbourne | Brisbane | Adelaide | Perth | Hobart | Darwin

Other formats

Comma delimited format used in spreadsheet applications
http://www.bom.gov.au/fwo/IDQ60901/IDQ60901.94591.axf

JavaScript Object Notation format (JSON) in row-major order
http://www.bom.gov.au/fwo/IDQ60901/IDQ60901.94591.json

Data quality

Most of these data are generated automatically and are frequently updated. Quality checks on data are not normally performed. It is possible for incorrect values to appear. Refer to information at About Latest Weather Observations and please check the disclaimer before using these data.